createdAt,value
2018-12-03T00:01:55.965Z,98354.79
2018-12-03T00:04:24.385Z,98360.63
2018-12-03T00:06:51.813Z,98349.28
2018-12-03T00:09:22.794Z,98347.63
2018-12-03T00:11:50.455Z,98344.59
2018-12-03T00:14:17.811Z,98345.61
2018-12-03T00:16:45.169Z,98341.11
2018-12-03T00:19:12.512Z,98338.92
2018-12-03T00:21:40.273Z,98335.44
2018-12-03T00:24:07.595Z,98327.09
2018-12-03T00:26:34.942Z,98320.75
2018-12-03T00:29:02.278Z,98322.08
2018-12-03T00:31:29.943Z,98320.42
2018-12-03T00:33:57.259Z,98312.58
2018-12-03T00:36:24.593Z,98312.90
2018-12-03T00:38:53.082Z,98318.41
2018-12-03T00:41:20.416Z,98322.73
2018-12-03T00:43:48.631Z,98326.75
2018-12-03T00:46:16.268Z,98336.77
2018-12-03T00:48:43.662Z,98357.13
2018-12-03T00:51:10.968Z,98342.12
2018-12-03T00:53:38.774Z,98347.46
2018-12-03T00:56:06.133Z,98339.45
2018-12-03T00:58:33.468Z,98327.59
2018-12-03T01:01:00.783Z,98328.92
2018-12-03T01:03:28.482Z,98336.09
2018-12-03T01:05:55.820Z,98336.09
2018-12-03T01:08:23.157Z,98339.78
2018-12-03T01:10:50.863Z,98335.97
2018-12-03T01:13:18.269Z,98335.64
2018-12-03T01:15:45.633Z,98341.16
2018-12-03T01:18:12.934Z,98335.97
2018-12-03T01:20:40.588Z,98345.48
2018-12-03T01:23:11.554Z,98347.19
2018-12-03T01:25:38.934Z,98350.55
2018-12-03T01:28:06.301Z,98353.86
2018-12-03T01:30:34.097Z,98359.89
2018-12-03T01:33:01.446Z,98361.91
2018-12-03T01:35:28.759Z,98363.94
2018-12-03T01:37:56.132Z,98364.26
2018-12-03T01:40:23.515Z,98361.92
2018-12-03T01:42:50.849Z,98367.78
2018-12-03T01:45:18.271Z,98370.94
2018-12-03T01:47:45.931Z,98374.94
2018-12-03T01:50:13.235Z,98373.28
2018-12-03T01:52:40.580Z,98369.44
2018-12-03T01:55:08.057Z,98365.95
2018-12-03T01:57:35.708Z,98375.30
2018-12-03T02:00:03.057Z,98379.80
2018-12-03T02:02:30.378Z,98368.30
2018-12-03T02:04:57.814Z,98371.45
2018-12-03T02:07:25.513Z,98375.30
2018-12-03T02:09:53.659Z,98365.62
2018-12-03T02:12:21.043Z,98359.11
2018-12-03T02:14:48.398Z,98359.60
2018-12-03T02:17:16.172Z,98357.91
2018-12-03T02:19:43.568Z,98359.24
2018-12-03T02:22:10.915Z,98354.27
2018-12-03T02:24:38.253Z,98346.58
2018-12-03T02:27:06.142Z,98345.56
2018-12-03T02:29:34.347Z,98341.03
2018-12-03T02:32:01.764Z,98337.88
2018-12-03T02:34:29.075Z,98333.03
2018-12-03T02:36:56.994Z,98332.54
2018-12-03T02:39:24.359Z,98334.72
2018-12-03T02:41:51.724Z,98324.53
2018-12-03T02:44:19.060Z,98333.71
2018-12-03T02:46:46.703Z,98326.03
2018-12-03T02:49:14.034Z,98330.88
2018-12-03T02:51:41.331Z,98323.19
2018-12-03T02:54:08.668Z,98328.53
2018-12-03T02:56:36.483Z,98310.16
2018-12-03T02:59:03.882Z,98304.82
2018-12-03T03:01:31.183Z,98298.99
2018-12-03T03:03:58.504Z,98301.83
2018-12-03T03:06:26.224Z,98287.30
2018-12-03T03:08:53.544Z,98284.95
2018-12-03T03:11:20.909Z,98294.30
2018-12-03T03:13:48.527Z,98293.65
2018-12-03T03:16:15.853Z,98294.98
2018-12-03T03:18:43.201Z,98289.97
2018-12-03T03:21:10.562Z,98296.13
2018-12-03T03:23:38.382Z,98294.63
2018-12-03T03:26:05.699Z,98297.62
2018-12-03T03:28:33.015Z,98301.45
2018-12-03T03:31:00.477Z,98308.13
2018-12-03T03:33:28.168Z,98299.96
2018-12-03T03:35:55.444Z,98296.45
2018-12-03T03:38:22.738Z,98301.14
2018-12-03T03:40:50.418Z,98297.13
2018-12-03T03:43:17.682Z,98300.81
2018-12-03T03:45:45.020Z,98303.48
2018-12-03T03:48:12.287Z,98312.02
2018-12-03T03:50:39.976Z,98301.83
2018-12-03T03:53:07.246Z,98298.66
2018-12-03T03:55:34.787Z,98297.17
2018-12-03T03:58:02.358Z,98283.82
2018-12-03T04:00:29.951Z,98281.31
2018-12-03T04:02:57.222Z,98270.95
2018-12-03T04:05:24.500Z,98278.48
2018-12-03T04:07:51.836Z,98279.81
2018-12-03T04:10:19.600Z,98288.15
2018-12-03T04:12:47.049Z,98295.64
2018-12-03T04:15:14.323Z,98307.49
2018-12-03T04:17:41.646Z,98311.66
2018-12-03T04:20:09.323Z,98305.80
2018-12-03T04:22:36.620Z,98315.50
2018-12-03T04:25:03.954Z,98315.83
2018-12-03T04:27:31.603Z,98314.81
2018-12-03T04:29:58.932Z,98315.30
2018-12-03T04:32:26.353Z,98320.64
2018-12-03T04:34:53.616Z,98322.78
2018-12-03T04:37:21.267Z,98319.46
2018-12-03T04:39:48.598Z,98314.44
2018-12-03T04:42:15.849Z,98311.94
2018-12-03T04:44:43.815Z,98295.75
2018-12-03T04:47:11.505Z,98311.29
2018-12-03T04:49:38.866Z,98311.97
2018-12-03T04:52:06.192Z,98312.62
2018-12-03T04:54:33.810Z,98313.80
2018-12-03T04:57:01.090Z,98316.34
2018-12-03T04:59:28.355Z,98322.87
2018-12-03T05:01:55.642Z,98322.54
2018-12-03T05:04:23.269Z,98328.53
2018-12-03T05:06:51.653Z,98333.88
2018-12-03T05:09:17.975Z,98337.07
2018-12-03T05:11:45.728Z,98333.23
2018-12-03T05:14:13.058Z,98336.91
2018-12-03T05:16:40.429Z,98332.58
2018-12-03T05:19:07.876Z,98346.09
2018-12-03T05:21:35.729Z,98345.93
2018-12-03T05:24:04.451Z,98347.95
2018-12-03T05:26:30.550Z,98340.10
2018-12-03T05:28:57.877Z,98337.79
2018-12-03T05:31:25.679Z,98335.97
2018-12-03T05:33:53.291Z,98330.14
2018-12-03T05:36:20.630Z,98347.66
2018-12-03T05:38:48.303Z,98343.00
2018-12-03T05:41:15.655Z,98355.02
2018-12-03T05:43:42.995Z,98352.67
2018-12-03T05:46:10.802Z,98344.34
2018-12-03T05:48:39.111Z,98356.86
2018-12-03T05:51:06.452Z,98353.34
2018-12-03T05:53:34.161Z,98357.35
2018-12-03T05:56:02.489Z,98358.53
2018-12-03T05:58:29.808Z,98359.20
2018-12-03T06:00:57.536Z,98359.37
2018-12-03T06:03:24.855Z,98368.05
2018-12-03T06:05:52.176Z,98363.89
2018-12-03T06:08:19.883Z,98363.39
2018-12-03T06:10:47.239Z,98369.09
2018-12-03T06:13:14.708Z,98371.42
2018-12-03T06:15:42.620Z,98372.92
2018-12-03T06:18:09.965Z,98373.41
2018-12-03T06:20:37.366Z,98373.93
2018-12-03T06:23:06.026Z,98374.94
2018-12-03T06:25:33.355Z,98381.61
2018-12-03T06:28:01.388Z,98382.94
2018-12-03T06:30:29.417Z,98367.58
2018-12-03T06:32:56.739Z,98367.25
2018-12-03T06:35:24.064Z,98376.09
2018-12-03T06:37:51.775Z,98376.94
2018-12-03T06:40:19.085Z,98373.96
2018-12-03T06:42:46.481Z,98379.45
2018-12-03T06:45:14.135Z,98376.63
2018-12-03T06:47:41.444Z,98377.98
2018-12-03T06:50:08.789Z,98377.13
2018-12-03T06:52:36.540Z,98385.46
2018-12-03T06:55:03.873Z,98392.13
2018-12-03T06:57:31.300Z,98391.64
2018-12-03T06:59:59.061Z,98395.31
2018-12-03T07:02:27.636Z,98391.80
2018-12-03T07:04:53.832Z,98387.31
2018-12-03T07:07:21.458Z,98388.28
2018-12-03T07:09:48.860Z,98394.80
2018-12-03T07:12:16.503Z,98389.62
2018-12-03T07:14:44.127Z,98399.80
2018-12-03T07:17:11.448Z,98392.45
2018-12-03T07:19:39.387Z,98393.13
2018-12-03T07:22:08.263Z,98401.98
2018-12-03T07:24:35.676Z,98395.64
2018-12-03T07:27:03.019Z,98401.64
2018-12-03T07:29:30.740Z,98403.14
2018-12-03T07:31:58.068Z,98400.80
2018-12-03T07:34:25.424Z,98406.95
2018-12-03T07:36:53.101Z,98418.80
2018-12-03T07:39:20.450Z,98411.81
2018-12-03T07:41:47.805Z,98411.12
2018-12-03T07:44:15.499Z,98412.31
2018-12-03T07:46:42.818Z,98420.80
2018-12-03T07:49:10.153Z,98424.47
2018-12-03T07:51:37.815Z,98422.13
2018-12-03T07:54:05.135Z,98427.64
2018-12-03T07:56:32.457Z,98430.14
2018-12-03T07:59:00.216Z,98421.64
2018-12-03T08:01:27.540Z,98426.47
2018-12-03T08:03:54.876Z,98429.30
2018-12-03T08:06:22.581Z,98432.81
2018-12-03T08:08:50.676Z,98433.14
2018-12-03T08:11:17.992Z,98434.32
2018-12-03T08:13:45.805Z,98431.46
2018-12-03T08:16:13.136Z,98432.64
2018-12-03T08:18:40.483Z,98439.31
2018-12-03T08:21:09.110Z,98440.30
2018-12-03T08:23:36.471Z,98440.66
2018-12-03T08:26:03.823Z,98442.64
2018-12-03T08:28:31.517Z,98447.66
2018-12-03T08:30:58.941Z,98451.16
2018-12-03T08:33:26.270Z,98448.46
2018-12-03T08:35:55.067Z,98449.64
2018-12-03T08:38:22.359Z,98446.97
2018-12-03T08:40:49.661Z,98450.47
2018-12-03T08:43:17.908Z,98454.15
2018-12-03T08:45:45.364Z,98454.99
2018-12-03T08:48:12.724Z,98446.47
2018-12-03T08:50:40.504Z,98456.98
2018-12-03T08:53:09.223Z,98453.31
2018-12-03T08:55:36.928Z,98455.83
2018-12-03T08:58:07.960Z,98456.13
2018-12-03T09:00:37.239Z,98457.80
2018-12-03T09:03:05.839Z,98457.14
2018-12-03T09:05:33.837Z,98466.80
2018-12-03T09:08:02.059Z,98464.11
2018-12-03T09:10:29.401Z,98462.09
2018-12-03T09:12:58.088Z,98464.11
2018-12-03T09:15:25.464Z,98459.13
2018-12-03T09:17:53.451Z,98466.45
2018-12-03T09:20:20.854Z,98463.28
2018-12-03T09:22:48.240Z,98468.29
2018-12-03T09:25:16.096Z,98471.48
2018-12-03T09:27:44.075Z,98475.29
2018-12-03T09:30:11.438Z,98474.80
2018-12-03T09:32:46.190Z,98478.78
2018-12-03T09:35:14.225Z,98482.14
2018-12-03T09:37:43.831Z,98478.30
2018-12-03T09:42:45.404Z,98463.11
2018-12-03T09:45:13.645Z,98464.42
2018-12-03T09:47:42.254Z,98473.08
2018-12-03T09:50:11.216Z,98471.42
2018-12-03T09:52:39.043Z,98470.44
2018-12-03T09:55:06.723Z,98474.95
2018-12-03T09:57:35.795Z,98471.15
2018-12-03T10:00:04.332Z,98477.80
2018-12-03T10:02:32.973Z,98479.50
2018-12-03T10:05:00.396Z,98478.50
2018-12-03T10:07:27.732Z,98471.13
2018-12-03T10:09:56.016Z,98462.47
2018-12-03T10:12:24.656Z,98460.95
2018-12-03T10:14:55.594Z,98454.77
2018-12-03T10:17:31.611Z,98453.91
2018-12-03T10:19:59.283Z,98439.79
2018-12-03T10:22:26.624Z,98425.70
2018-12-03T10:24:55.336Z,98430.88
2018-12-03T10:27:22.654Z,98426.39
2018-12-03T10:29:50.316Z,98421.90
2018-12-03T10:32:19.855Z,98423.23
2018-12-03T10:34:51.713Z,98438.26
2018-12-03T10:37:20.867Z,98430.60
2018-12-03T10:42:22.270Z,98427.93
2018-12-03T10:44:49.872Z,98429.92
2018-12-03T10:47:18.471Z,98429.55
2018-12-03T10:49:46.748Z,98421.90
2018-12-03T10:52:14.059Z,98418.41
2018-12-03T10:54:42.294Z,98415.22
2018-12-03T10:57:09.664Z,98425.38
2018-12-03T10:59:39.919Z,98421.53
2018-12-03T11:02:12.751Z,98419.46
2018-12-03T11:04:44.787Z,98417.44
2018-12-03T11:07:12.156Z,98421.97
2018-12-03T11:09:40.411Z,98416.09
2018-12-03T11:12:07.755Z,98418.97
2018-12-03T11:14:35.064Z,98412.45
2018-12-03T11:17:02.819Z,98413.64
2018-12-03T11:19:30.180Z,98413.20
2018-12-03T11:21:57.483Z,98400.89
2018-12-03T11:24:25.355Z,98404.77
2018-12-03T11:26:52.707Z,98412.48
2018-12-03T11:29:20.052Z,98413.50
2018-12-03T11:31:47.765Z,98410.99
2018-12-03T11:34:16.224Z,98409.98
2018-12-03T11:36:44.453Z,98404.61
2018-12-03T11:39:15.989Z,98412.59
2018-12-03T11:41:43.302Z,98403.23
2018-12-03T11:44:10.751Z,98392.19
2018-12-03T11:46:38.549Z,98389.52
2018-12-03T11:49:05.928Z,98394.49
2018-12-03T11:51:33.289Z,98386.63
2018-12-03T11:54:03.143Z,98379.90
2018-12-03T11:56:30.489Z,98373.95
2018-12-03T11:58:57.856Z,98381.66
2018-12-03T12:01:25.583Z,98376.25
2018-12-03T12:03:52.923Z,98370.87
2018-12-03T12:06:20.981Z,98366.33
2018-12-03T12:08:48.683Z,98368.75
2018-12-03T12:11:16.170Z,98365.02
2018-12-03T12:13:43.552Z,98369.09
2018-12-03T12:16:11.344Z,98355.95
2018-12-03T12:18:38.708Z,98359.00
2018-12-03T12:21:06.034Z,98354.14
2018-12-03T12:23:33.700Z,98367.22
2018-12-03T12:26:01.122Z,98363.75
2018-12-03T12:28:28.475Z,98364.09
2018-12-03T12:30:56.231Z,98358.79
2018-12-03T12:33:23.604Z,98361.80
2018-12-03T12:35:50.965Z,98349.13
2018-12-03T12:38:18.608Z,98338.39
2018-12-03T12:40:45.954Z,98345.05
2018-12-03T12:43:13.306Z,98333.71
2018-12-03T12:45:41.036Z,98335.05
2018-12-03T12:48:08.418Z,98338.05
2018-12-03T12:50:35.823Z,98330.38
2018-12-03T12:53:03.569Z,98335.39
2018-12-03T12:55:30.935Z,98329.55
2018-12-03T12:57:59.655Z,98321.00
2018-12-03T13:00:27.376Z,98329.13
2018-12-03T13:02:54.717Z,98330.55
2018-12-03T13:05:28.544Z,98328.14
2018-12-03T13:07:51.184Z,98313.44
2018-12-03T13:10:19.064Z,98314.98
2018-12-03T13:12:46.446Z,98306.50
2018-12-03T13:15:15.331Z,98303.89
2018-12-03T13:17:43.233Z,98304.28
2018-12-03T13:20:10.568Z,98298.98
2018-12-03T13:22:38.741Z,98299.14
2018-12-03T13:25:06.806Z,98292.47
2018-12-03T13:27:34.399Z,98296.45
2018-12-03T13:30:02.200Z,98298.28
2018-12-03T13:32:29.552Z,98292.95
2018-12-03T13:34:58.370Z,98284.10
2018-12-03T13:37:27.263Z,98287.47
2018-12-03T13:39:56.260Z,98286.50
2018-12-03T13:42:24.574Z,98279.19
2018-12-03T13:44:54.617Z,98291.47
2018-12-03T13:47:21.923Z,98278.33
2018-12-03T13:49:49.564Z,98280.23
2018-12-03T13:52:17.288Z,98275.25
2018-12-03T13:54:45.593Z,98270.77
2018-12-03T13:57:13.264Z,98265.47
2018-12-03T13:59:41.043Z,98270.80
2018-12-03T14:02:08.351Z,98274.00
2018-12-03T14:04:35.695Z,98268.50
2018-12-03T14:07:04.059Z,98267.00
2018-12-03T14:09:31.394Z,98264.86
2018-12-03T14:11:58.748Z,98267.20
2018-12-03T14:14:26.508Z,98269.87
2018-12-03T14:16:54.782Z,98268.53
2018-12-03T14:19:22.092Z,98274.36
2018-12-03T14:21:49.783Z,98278.69
2018-12-03T14:24:17.189Z,98274.36
2018-12-03T14:26:45.176Z,98281.35
2018-12-03T14:29:12.886Z,98284.22
2018-12-03T14:31:40.218Z,98280.70
2018-12-03T14:34:07.596Z,98273.05
2018-12-03T14:36:35.247Z,98266.88
2018-12-03T14:39:02.598Z,98262.87
2018-12-03T14:42:07.047Z,98266.38
2018-12-03T14:44:34.674Z,98260.49
2018-12-03T14:47:02.323Z,98255.31
2018-12-03T14:49:30.375Z,98276.95
2018-12-03T14:51:58.002Z,98259.28
2018-12-03T14:54:27.118Z,98256.61
2018-12-03T14:56:55.246Z,98257.95
2018-12-03T14:59:22.879Z,98275.09
2018-12-03T15:01:50.505Z,98278.29
2018-12-03T15:04:20.524Z,98274.97
2018-12-03T15:06:49.274Z,98276.47
2018-12-03T15:09:17.526Z,98276.63
2018-12-03T15:11:45.858Z,98279.66
2018-12-03T15:14:21.643Z,98274.65
2018-12-03T15:16:49.622Z,98273.83
2018-12-03T15:19:17.245Z,98282.36
2018-12-03T15:21:45.442Z,98288.58
2018-12-03T15:24:14.255Z,98285.41
2018-12-03T15:26:42.520Z,98281.93
2018-12-03T15:29:11.910Z,98277.92
2018-12-03T15:31:40.961Z,98269.76
2018-12-03T15:34:08.573Z,98273.44
2018-12-03T15:36:39.432Z,98274.80
2018-12-03T15:39:08.507Z,98270.11
2018-12-03T15:41:36.806Z,98270.79
2018-12-03T15:44:04.454Z,98286.95
2018-12-03T15:46:32.410Z,98282.98
2018-12-03T15:49:01.406Z,98276.99
2018-12-03T15:51:28.993Z,98281.83
2018-12-03T15:53:57.004Z,98281.14
2018-12-03T15:56:24.621Z,98283.48
2018-12-03T15:58:52.220Z,98270.67
2018-12-03T16:01:21.153Z,98268.65
2018-12-03T16:03:48.762Z,98270.17
2018-12-03T16:06:18.815Z,98278.66
2018-12-03T16:08:46.894Z,98280.84
2018-12-03T16:11:14.477Z,98282.66
2018-12-03T16:13:43.504Z,98287.99
2018-12-03T16:16:11.532Z,98289.48
2018-12-03T16:18:40.605Z,98288.52
2018-12-03T16:21:08.227Z,98280.97
2018-12-03T16:23:36.286Z,98285.98
2018-12-03T16:26:04.502Z,98272.63
2018-12-03T16:28:32.760Z,98274.81
2018-12-03T16:31:00.717Z,98274.45
2018-12-03T16:33:29.645Z,98274.62
2018-12-03T16:35:57.244Z,98277.78
2018-12-03T16:38:26.038Z,98283.77
2018-12-03T16:40:55.503Z,98277.79
2018-12-03T16:45:56.045Z,98267.94
2018-12-03T16:48:23.661Z,98264.28
2018-12-03T16:50:51.326Z,98260.12
2018-12-03T16:53:19.236Z,98248.13
2018-12-03T16:55:46.820Z,98270.11
2018-12-03T16:58:14.507Z,98259.28
2018-12-03T17:00:42.533Z,98256.94
2018-12-03T17:03:10.138Z,98259.41
2018-12-03T17:05:38.720Z,98250.24
2018-12-03T17:08:06.809Z,98254.08
2018-12-03T17:10:34.393Z,98258.08
2018-12-03T17:13:02.960Z,98274.44
2018-12-03T17:15:32.996Z,98259.28
2018-12-03T17:18:00.688Z,98273.78
2018-12-03T17:20:28.953Z,98270.14
2018-12-03T17:22:57.853Z,98278.81
2018-12-03T17:25:25.486Z,98277.31
2018-12-03T17:27:53.108Z,98280.98
2018-12-03T17:30:21.052Z,98269.31
2018-12-03T17:32:48.691Z,98275.81
2018-12-03T17:35:16.321Z,98264.65
2018-12-03T17:37:45.042Z,98272.16
2018-12-03T17:40:13.664Z,98284.83
2018-12-03T17:42:41.594Z,98280.16
2018-12-03T17:45:10.417Z,98288.52
2018-12-03T17:47:39.701Z,98280.84
2018-12-03T17:50:07.920Z,98280.97
2018-12-03T17:52:36.193Z,98277.82
2018-12-03T17:55:03.791Z,98281.14
2018-12-03T17:57:32.241Z,98284.83
2018-12-03T18:00:00.322Z,98285.48
2018-12-03T18:02:28.601Z,98291.14
2018-12-03T18:04:57.441Z,98296.31
2018-12-03T18:07:28.518Z,98300.48
2018-12-03T18:09:56.108Z,98294.95
2018-12-03T18:12:23.694Z,98295.13
2018-12-03T18:14:51.646Z,98297.11
2018-12-03T18:17:19.268Z,98285.95
2018-12-03T18:19:46.930Z,98295.13
2018-12-03T18:22:15.747Z,98286.44
2018-12-03T18:24:43.650Z,98284.78
2018-12-03T18:27:11.244Z,98292.78
2018-12-03T18:29:40.213Z,98291.28
2018-12-03T18:32:14.818Z,98310.80
2018-12-03T18:34:42.467Z,98300.13
2018-12-03T18:37:10.399Z,98317.61
2018-12-03T18:39:38.314Z,98317.45
2018-12-03T18:42:06.974Z,98319.79
2018-12-03T18:44:35.175Z,98320.12
2018-12-03T18:47:04.247Z,98315.77
2018-12-03T18:49:31.848Z,98321.75
2018-12-03T18:51:59.842Z,98326.92
2018-12-03T18:54:27.423Z,98331.58
2018-12-03T18:56:55.582Z,98327.26
2018-12-03T18:59:24.254Z,98326.58
2018-12-03T19:01:51.877Z,98322.91
2018-12-03T19:04:20.493Z,98320.07
2018-12-03T19:06:49.473Z,98327.04
2018-12-03T19:09:17.977Z,98323.39
2018-12-03T19:11:46.603Z,98320.73
2018-12-03T19:14:14.578Z,98321.38
2018-12-03T19:16:42.190Z,98323.89
2018-12-03T19:19:10.493Z,98323.20
2018-12-03T19:21:39.811Z,98327.53
2018-12-03T19:24:08.213Z,98328.05
2018-12-03T19:26:36.829Z,98329.05
2018-12-03T19:29:05.885Z,98329.41
2018-12-03T19:31:33.839Z,98338.77
2018-12-03T19:34:01.453Z,98333.75
2018-12-03T19:36:29.486Z,98342.44
2018-12-03T19:38:57.431Z,98343.61
2018-12-03T19:41:25.746Z,98354.11
2018-12-03T19:43:54.318Z,98364.13
2018-12-03T19:46:23.436Z,98361.28
2018-12-03T19:48:51.750Z,98369.80
2018-12-03T19:51:19.736Z,98376.81
2018-12-03T19:53:47.387Z,98377.97
2018-12-03T19:56:14.992Z,98376.98
2018-12-03T19:58:43.759Z,98379.97
2018-12-03T20:01:12.290Z,98375.31
2018-12-03T20:03:44.528Z,98381.66
2018-12-03T20:06:13.207Z,98374.30
2018-12-03T20:08:42.139Z,98384.63
2018-12-03T20:11:09.801Z,98400.30
2018-12-03T20:13:37.726Z,98394.31
2018-12-03T20:16:05.350Z,98391.80
2018-12-03T20:18:35.782Z,98395.47
2018-12-03T20:21:03.761Z,98403.98
2018-12-03T20:23:31.387Z,98403.98
2018-12-03T20:25:59.838Z,98411.14
2018-12-03T20:28:27.814Z,98416.47
2018-12-03T20:30:55.442Z,98416.95
2018-12-03T20:33:23.751Z,98419.26
2018-12-03T20:35:52.346Z,98414.45
2018-12-03T20:38:19.963Z,98418.44
2018-12-03T20:40:48.626Z,98420.78
2018-12-03T20:43:17.495Z,98422.59
2018-12-03T20:45:45.830Z,98419.76
2018-12-03T20:48:13.425Z,98423.76
2018-12-03T20:50:43.641Z,98431.75
2018-12-03T20:53:11.481Z,98438.75
2018-12-03T20:55:39.826Z,98445.93
2018-12-03T20:58:09.618Z,98441.09
2018-12-03T21:00:37.933Z,98452.75
2018-12-03T21:03:06.379Z,98447.57
2018-12-03T21:05:36.207Z,98448.77
2018-12-03T21:08:05.288Z,98453.22
2018-12-03T21:10:33.467Z,98457.72
2018-12-03T21:13:02.700Z,98457.06
2018-12-03T21:15:30.347Z,98455.03
2018-12-03T21:17:57.945Z,98463.88
2018-12-03T21:20:26.010Z,98463.36
2018-12-03T21:22:53.666Z,98474.84
2018-12-03T21:25:23.011Z,98477.69
2018-12-03T21:27:51.009Z,98474.17
2018-12-03T21:30:18.654Z,98481.69
2018-12-03T21:32:46.252Z,98494.67
2018-12-03T21:35:14.233Z,98493.52
2018-12-03T21:37:43.788Z,98496.03
2018-12-03T21:40:12.312Z,98496.85
2018-12-03T21:42:42.815Z,98505.17
2018-12-03T21:45:10.527Z,98510.35
2018-12-03T21:47:40.049Z,98514.68
2018-12-03T21:50:07.976Z,98516.34
2018-12-03T21:52:36.049Z,98516.02
2018-12-03T21:55:05.025Z,98511.84
2018-12-03T21:57:34.456Z,98522.16
2018-12-03T22:00:02.164Z,98527.16
2018-12-03T22:02:29.758Z,98534.64
2018-12-03T22:04:58.622Z,98534.98
2018-12-03T22:07:26.297Z,98537.31
2018-12-03T22:09:53.868Z,98545.13
2018-12-03T22:12:21.855Z,98537.95
2018-12-03T22:14:49.474Z,98543.24
2018-12-03T22:17:17.097Z,98548.88
2018-12-03T22:19:45.983Z,98559.82
2018-12-03T22:22:14.467Z,98565.77
2018-12-03T22:24:45.280Z,98577.70
2018-12-03T22:27:13.956Z,98589.31
2018-12-03T22:29:41.868Z,98598.95
2018-12-03T22:32:09.873Z,98594.29
2018-12-03T22:34:37.847Z,98606.27
2018-12-03T22:37:05.431Z,98611.41
2018-12-03T22:39:33.138Z,98620.59
2018-12-03T22:42:00.733Z,98624.92
2018-12-03T22:44:28.346Z,98633.61
2018-12-03T22:46:56.356Z,98631.44
2018-12-03T22:49:23.922Z,98632.42
2018-12-03T22:51:51.526Z,98642.74
2018-12-03T22:54:19.425Z,98651.36
2018-12-03T22:56:47.024Z,98657.20
2018-12-03T22:59:15.391Z,98658.52
2018-12-03T23:01:43.035Z,98657.05
2018-12-03T23:04:11.106Z,98660.05
2018-12-03T23:06:39.716Z,98662.05
2018-12-03T23:09:07.323Z,98670.71
2018-12-03T23:11:38.056Z,98676.23
2018-12-03T23:14:05.726Z,98675.57
2018-12-03T23:16:33.343Z,98681.94
2018-12-03T23:19:01.409Z,98684.94
2018-12-03T23:21:29.013Z,98686.61
2018-12-03T23:23:56.694Z,98692.61
2018-12-03T23:26:25.546Z,98699.27
2018-12-03T23:28:53.991Z,98704.45
2018-12-03T23:31:21.644Z,98714.25
2018-12-03T23:33:49.745Z,98720.57
2018-12-03T23:36:17.361Z,98720.23
2018-12-03T23:38:46.412Z,98730.55
2018-12-03T23:41:14.311Z,98733.88
2018-12-03T23:43:41.930Z,98739.20
2018-12-03T23:46:09.568Z,98741.86
2018-12-03T23:48:37.207Z,98756.00
2018-12-03T23:51:05.221Z,98759.17
2018-12-03T23:53:32.841Z,98781.10
2018-12-03T23:56:00.470Z,98788.75
2018-12-03T23:58:28.093Z,98798.39
